createdAt,value
2023-06-11T00:02:03.020Z,8.40
2023-06-11T00:04:31.824Z,8.30
2023-06-11T00:07:00.984Z,8.20
2023-06-11T00:09:29.634Z,8.20
2023-06-11T00:11:57.502Z,8.60
2023-06-11T00:14:25.304Z,8.90
2023-06-11T00:16:53.642Z,8.10
2023-06-11T00:19:22.380Z,8.30
2023-06-11T00:21:50.703Z,8.80
2023-06-11T00:24:19.111Z,8.40
2023-06-11T00:26:47.190Z,7.90
2023-06-11T00:29:14.998Z,8.60
2023-06-11T00:31:42.924Z,8.10
2023-06-11T00:34:11.382Z,8.20
2023-06-11T00:36:41.884Z,8.40
2023-06-11T00:39:11.210Z,8.00
2023-06-11T00:41:46.770Z,8.00
2023-06-11T00:44:22.853Z,8.10
2023-06-11T00:46:52.391Z,7.70
2023-06-11T00:49:21.493Z,7.70
2023-06-11T00:51:49.405Z,8.70
2023-06-11T00:54:20.239Z,9.50
2023-06-11T00:56:48.052Z,9.30
2023-06-11T00:59:18.497Z,8.50
2023-06-11T01:01:59.335Z,8.20
2023-06-11T01:04:28.177Z,8.00
2023-06-11T01:06:58.287Z,7.90
2023-06-11T01:09:27.301Z,8.10
2023-06-11T01:11:58.282Z,7.50
2023-06-11T01:14:26.645Z,8.00
2023-06-11T01:17:06.163Z,8.70
2023-06-11T01:20:04.507Z,7.60
2023-06-11T01:22:55.450Z,8.00
2023-06-11T01:25:55.495Z,7.70
2023-06-11T01:28:25.863Z,8.70
2023-06-11T01:30:53.952Z,8.60
2023-06-11T01:33:21.941Z,8.50
2023-06-11T01:35:59.516Z,8.70
2023-06-11T01:38:35.920Z,8.80
2023-06-11T01:41:04.542Z,9.10
2023-06-11T01:43:34.098Z,8.50
2023-06-11T01:46:04.636Z,9.00
2023-06-11T01:48:33.453Z,8.60
2023-06-11T01:51:01.358Z,8.20
2023-06-11T01:53:29.275Z,9.30
2023-06-11T01:55:58.004Z,9.10
2023-06-11T01:58:26.866Z,9.00
2023-06-11T02:00:54.800Z,9.10
2023-06-11T02:03:22.729Z,9.10
2023-06-11T02:05:51.234Z,9.00
2023-06-11T02:08:19.138Z,9.00
2023-06-11T02:10:47.033Z,8.60
2023-06-11T02:13:14.864Z,8.80
2023-06-11T02:15:42.857Z,8.80
2023-06-11T02:18:11.192Z,9.60
2023-06-11T02:20:39.032Z,8.90
2023-06-11T02:23:06.971Z,8.90
2023-06-11T02:25:34.897Z,9.00
2023-06-11T02:28:05.554Z,8.30
2023-06-11T02:30:33.471Z,9.10
2023-06-11T02:33:01.523Z,9.20
2023-06-11T02:35:30.752Z,9.20
2023-06-11T02:37:58.701Z,9.00
2023-06-11T02:40:26.565Z,9.40
2023-06-11T02:42:54.325Z,9.50
2023-06-11T02:45:22.469Z,9.30
2023-06-11T02:47:50.400Z,9.20
2023-06-11T02:50:18.452Z,8.90
2023-06-11T02:52:46.515Z,9.40
2023-06-11T02:55:14.499Z,9.20
2023-06-11T02:57:42.694Z,8.70
2023-06-11T03:00:11.951Z,9.20
2023-06-11T03:02:40.902Z,9.10
2023-06-11T03:05:09.876Z,8.80
2023-06-11T03:07:38.685Z,9.50
2023-06-11T03:10:08.488Z,9.80
2023-06-11T03:12:36.384Z,9.40
2023-06-11T03:15:05.428Z,9.50
2023-06-11T03:17:33.413Z,9.50
2023-06-11T03:20:01.180Z,9.20
2023-06-11T03:22:29.219Z,9.20
2023-06-11T03:24:57.507Z,9.40
2023-06-11T03:27:32.349Z,9.30
2023-06-11T03:30:00.634Z,9.20
2023-06-11T03:32:28.861Z,7.40
2023-06-11T03:34:56.766Z,7.40
2023-06-11T03:37:24.994Z,8.60
2023-06-11T03:39:55.783Z,8.40
2023-06-11T03:42:24.994Z,8.00
2023-06-11T03:44:54.433Z,8.60
2023-06-11T03:47:22.828Z,7.40
2023-06-11T03:49:52.785Z,8.20
2023-06-11T03:52:20.723Z,7.60
2023-06-11T03:54:48.535Z,7.30
2023-06-11T03:57:19.773Z,8.30
2023-06-11T03:59:47.810Z,7.00
2023-06-11T04:02:15.963Z,7.70
2023-06-11T04:04:44.087Z,7.90
2023-06-11T04:07:12.780Z,6.90
2023-06-11T04:09:41.537Z,6.80
2023-06-11T04:12:09.621Z,7.10
2023-06-11T04:14:38.350Z,6.90
2023-06-11T04:17:06.686Z,6.50
2023-06-11T04:19:34.538Z,7.00
2023-06-11T04:22:02.382Z,7.00
2023-06-11T04:24:30.818Z,6.80
2023-06-11T04:26:59.303Z,6.90
2023-06-11T04:29:30.552Z,6.90
2023-06-11T04:32:03.274Z,6.50
2023-06-11T04:34:32.340Z,6.20
2023-06-11T04:37:02.025Z,6.40
2023-06-11T04:39:29.963Z,6.10
2023-06-11T04:41:59.810Z,6.40
2023-06-11T04:44:29.391Z,6.10
2023-06-11T04:46:59.544Z,5.90
2023-06-11T04:49:30.575Z,6.20
2023-06-11T04:51:59.354Z,5.10
2023-06-11T04:54:28.401Z,5.50
2023-06-11T04:56:58.780Z,5.40
2023-06-11T04:59:27.892Z,5.20
2023-06-11T05:01:56.653Z,5.00
2023-06-11T05:04:28.655Z,5.30
2023-06-11T05:06:59.132Z,5.20
2023-06-11T05:09:28.098Z,5.90
2023-06-11T05:11:55.892Z,5.20
2023-06-11T05:14:23.969Z,5.50
2023-06-11T05:16:54.080Z,5.40
2023-06-11T05:19:22.266Z,5.60
2023-06-11T05:21:50.551Z,5.10
2023-06-11T05:24:22.364Z,5.30
2023-06-11T05:26:57.639Z,4.80
2023-06-11T05:29:26.938Z,5.60
2023-06-11T05:31:57.657Z,4.60
2023-06-11T05:34:27.506Z,5.20
2023-06-11T05:36:58.753Z,5.50
2023-06-11T05:39:27.007Z,4.40
2023-06-11T05:41:55.354Z,4.60
2023-06-11T05:44:24.661Z,4.30
2023-06-11T05:46:53.074Z,4.60
2023-06-11T05:49:21.308Z,4.10
2023-06-11T05:51:49.743Z,4.20
2023-06-11T05:54:18.164Z,4.70
2023-06-11T05:56:46.657Z,4.40
2023-06-11T05:59:15.718Z,4.40
2023-06-11T06:01:46.573Z,3.70
2023-06-11T06:04:17.363Z,4.20
2023-06-11T06:06:46.160Z,4.30
2023-06-11T06:09:15.647Z,4.30
2023-06-11T06:11:44.326Z,4.00
2023-06-11T06:14:12.462Z,4.60
2023-06-11T06:16:40.859Z,4.30
2023-06-11T06:19:10.634Z,4.40
2023-06-11T06:21:38.430Z,4.10
2023-06-11T06:24:06.881Z,4.00
2023-06-11T06:26:35.212Z,4.00
2023-06-11T06:29:04.585Z,4.40
2023-06-11T06:31:34.122Z,4.00
2023-06-11T06:34:04.419Z,4.20
2023-06-11T06:36:35.422Z,3.90
2023-06-11T06:39:03.838Z,3.60
2023-06-11T06:41:31.893Z,3.90
2023-06-11T06:44:03.145Z,4.30
2023-06-11T06:46:31.692Z,4.20
2023-06-11T06:48:59.937Z,4.10
2023-06-11T06:51:30.642Z,3.70
2023-06-11T06:53:58.780Z,3.90
2023-06-11T06:56:27.487Z,3.60
2023-06-11T06:58:55.794Z,4.10
2023-06-11T07:01:23.620Z,3.50
2023-06-11T07:03:51.579Z,4.20
2023-06-11T07:06:20.368Z,3.70
2023-06-11T07:08:48.682Z,3.50
2023-06-11T07:11:16.722Z,3.70
2023-06-11T07:13:46.601Z,4.10
2023-06-11T07:16:14.689Z,3.70
2023-06-11T07:18:46.842Z,4.00
2023-06-11T07:21:16.073Z,3.10
2023-06-11T07:23:44.546Z,3.40
2023-06-11T07:26:15.309Z,3.20
2023-06-11T07:28:43.719Z,3.50
2023-06-11T07:31:11.950Z,3.20
2023-06-11T07:33:40.312Z,2.90
2023-06-11T07:36:08.380Z,3.10
2023-06-11T07:38:36.452Z,3.20
2023-06-11T07:41:04.555Z,3.20
2023-06-11T07:43:32.521Z,3.00
2023-06-11T07:46:00.907Z,2.90
2023-06-11T07:48:28.809Z,3.10
2023-06-11T07:50:56.670Z,2.70
2023-06-11T07:53:25.813Z,2.70
2023-06-11T07:55:56.876Z,2.50
2023-06-11T07:58:24.983Z,2.60
2023-06-11T08:00:53.936Z,2.30
2023-06-11T08:03:22.464Z,2.10
2023-06-11T08:05:50.352Z,2.40
2023-06-11T08:08:18.434Z,2.20
2023-06-11T08:10:47.049Z,1.90
2023-06-11T08:13:15.411Z,2.30
2023-06-11T08:15:43.912Z,1.90
2023-06-11T08:18:11.848Z,2.40
2023-06-11T08:20:39.926Z,1.80
2023-06-11T08:23:07.854Z,1.90
2023-06-11T08:25:37.391Z,1.50
2023-06-11T08:28:05.391Z,1.80
2023-06-11T08:30:33.343Z,1.90
2023-06-11T08:33:01.416Z,2.10
2023-06-11T08:35:29.344Z,2.20
2023-06-11T08:37:57.454Z,2.10
2023-06-11T08:40:25.359Z,2.20
2023-06-11T08:42:53.431Z,2.00
2023-06-11T08:45:21.435Z,2.20
2023-06-11T08:47:53.054Z,2.50
2023-06-11T08:50:24.178Z,2.30
2023-06-11T08:52:53.092Z,2.20
2023-06-11T08:55:21.163Z,2.40
2023-06-11T08:57:51.409Z,2.00
2023-06-11T09:00:20.409Z,2.70
2023-06-11T09:02:48.671Z,2.10
2023-06-11T09:05:16.811Z,2.40
2023-06-11T09:07:54.112Z,2.50
2023-06-11T09:10:22.163Z,2.30
2023-06-11T09:12:50.300Z,2.30
2023-06-11T09:15:18.764Z,2.10
2023-06-11T09:17:48.015Z,2.60
2023-06-11T09:20:17.020Z,2.00
2023-06-11T09:22:45.488Z,2.40
2023-06-11T09:25:18.420Z,2.00
2023-06-11T09:27:48.309Z,2.30
2023-06-11T09:30:18.765Z,2.20
2023-06-11T09:32:48.736Z,2.30
2023-06-11T09:35:20.298Z,1.90
2023-06-11T09:37:53.496Z,1.90
2023-06-11T09:40:24.528Z,2.50
2023-06-11T09:42:53.025Z,2.20
2023-06-11T09:45:22.188Z,2.10
2023-06-11T09:47:52.520Z,2.10
2023-06-11T09:50:21.308Z,2.10
2023-06-11T09:52:49.255Z,2.00
2023-06-11T09:55:17.162Z,2.00
2023-06-11T09:57:45.185Z,2.40
2023-06-11T10:00:14.793Z,2.30
2023-06-11T10:02:43.714Z,2.20
2023-06-11T10:05:14.176Z,1.80
2023-06-11T10:07:48.640Z,2.20
2023-06-11T10:10:19.266Z,2.50
2023-06-11T10:12:53.788Z,2.10
2023-06-11T10:15:25.264Z,2.10
2023-06-11T10:17:55.148Z,2.30
2023-06-11T10:20:33.016Z,2.00
2023-06-11T10:23:07.994Z,2.50
2023-06-11T10:25:38.864Z,2.70
2023-06-11T10:28:08.116Z,2.30
2023-06-11T10:30:35.946Z,2.30
2023-06-11T10:33:04.163Z,2.30
2023-06-11T10:35:37.020Z,2.10
2023-06-11T10:38:13.777Z,2.60
2023-06-11T10:40:41.757Z,2.10
2023-06-11T10:43:22.796Z,2.10
2023-06-11T10:46:13.220Z,2.70
2023-06-11T10:48:53.322Z,2.60
2023-06-11T10:51:22.299Z,2.20
2023-06-11T10:53:58.320Z,2.30
2023-06-11T10:56:28.890Z,2.20
2023-06-11T10:58:56.914Z,2.90
2023-06-11T11:01:24.855Z,2.40
2023-06-11T11:03:53.322Z,2.70
2023-06-11T11:06:29.789Z,2.30
2023-06-11T11:08:57.931Z,2.60
2023-06-11T11:11:27.869Z,2.30
2023-06-11T11:14:01.351Z,2.60
2023-06-11T11:16:29.969Z,2.50
2023-06-11T11:18:57.828Z,2.70
2023-06-11T11:21:32.210Z,2.40
2023-06-11T11:24:00.371Z,2.30
2023-06-11T11:26:28.622Z,2.40
2023-06-11T11:28:57.120Z,2.70
2023-06-11T11:31:25.109Z,2.50
2023-06-11T11:33:53.008Z,2.20
2023-06-11T11:36:23.279Z,2.40
2023-06-11T11:38:51.825Z,2.50
2023-06-11T11:41:23.032Z,2.40
2023-06-11T11:43:51.748Z,2.20
2023-06-11T11:46:25.008Z,2.70
2023-06-11T11:48:56.821Z,2.50
2023-06-11T11:51:25.136Z,2.40
2023-06-11T11:53:53.203Z,2.50
2023-06-11T11:56:21.199Z,2.60
2023-06-11T11:58:50.579Z,2.40
2023-06-11T12:01:24.168Z,2.30
2023-06-11T12:04:02.863Z,2.70
2023-06-11T12:06:34.072Z,2.50
2023-06-11T12:09:02.062Z,3.40
2023-06-11T12:11:30.049Z,2.20
2023-06-11T12:13:57.963Z,2.30
2023-06-11T12:16:26.083Z,2.40
2023-06-11T12:18:57.060Z,2.50
2023-06-11T12:21:28.964Z,2.30
2023-06-11T12:23:57.617Z,2.50
2023-06-11T12:26:25.596Z,2.50
2023-06-11T12:28:53.509Z,2.50
2023-06-11T12:31:21.352Z,2.40
2023-06-11T12:33:49.237Z,2.10
2023-06-11T12:36:17.072Z,2.30
2023-06-11T12:38:46.351Z,2.30
2023-06-11T12:41:14.464Z,2.90
2023-06-11T12:43:42.342Z,2.60
2023-06-11T12:46:11.699Z,2.10
2023-06-11T12:48:39.579Z,2.30
2023-06-11T12:51:07.597Z,2.50
2023-06-11T12:53:35.476Z,2.30
2023-06-11T12:56:03.686Z,1.90
2023-06-11T12:58:32.075Z,2.20
2023-06-11T13:01:00.049Z,2.30
2023-06-11T13:03:27.974Z,2.10
2023-06-11T13:05:55.936Z,2.20
2023-06-11T13:08:23.768Z,2.20
2023-06-11T13:10:53.714Z,2.20
2023-06-11T13:13:21.701Z,2.20
2023-06-11T13:15:49.700Z,2.20
2023-06-11T13:18:17.696Z,2.30
2023-06-11T13:20:45.525Z,2.20
2023-06-11T13:23:20.595Z,2.10
2023-06-11T13:25:49.105Z,2.50
2023-06-11T13:28:17.383Z,2.70
2023-06-11T13:30:45.487Z,2.40
2023-06-11T13:33:13.396Z,2.60
2023-06-11T13:35:41.340Z,2.30
2023-06-11T13:38:09.261Z,2.60
2023-06-11T13:40:37.115Z,2.30
2023-06-11T13:43:04.931Z,2.50
2023-06-11T13:45:32.800Z,2.30
2023-06-11T13:48:17.631Z,2.60
2023-06-11T13:50:46.907Z,2.50
2023-06-11T13:53:19.924Z,2.50
2023-06-11T13:55:48.161Z,2.60
2023-06-11T13:58:16.574Z,2.30
2023-06-11T14:00:44.904Z,1.90
2023-06-11T14:03:13.075Z,2.00
2023-06-11T14:05:41.069Z,2.00
2023-06-11T14:08:09.578Z,2.60
2023-06-11T14:10:37.471Z,2.30
2023-06-11T14:13:05.632Z,2.40
2023-06-11T14:15:33.720Z,2.30
2023-06-11T14:18:01.687Z,2.80
2023-06-11T14:20:29.628Z,2.50
2023-06-11T14:22:57.596Z,2.60
2023-06-11T14:25:25.815Z,2.80
2023-06-11T14:27:53.984Z,2.20
2023-06-11T14:30:22.505Z,2.50
2023-06-11T14:32:50.514Z,2.90
2023-06-11T14:35:18.442Z,2.80
2023-06-11T14:37:46.316Z,2.80
2023-06-11T14:40:14.372Z,2.60
2023-06-11T14:42:42.479Z,2.90
2023-06-11T14:45:11.233Z,3.00
2023-06-11T14:47:39.321Z,2.60
2023-06-11T14:50:08.029Z,2.40
2023-06-11T14:52:36.028Z,2.80
2023-06-11T14:55:04.335Z,2.60
2023-06-11T14:57:32.891Z,2.60
2023-06-11T15:00:05.157Z,4.30
2023-06-11T15:02:36.509Z,3.10
2023-06-11T15:05:05.182Z,2.60
2023-06-11T15:07:35.831Z,3.20
2023-06-11T15:10:05.221Z,2.80
2023-06-11T15:12:33.759Z,2.90
2023-06-11T15:15:02.286Z,3.00
2023-06-11T15:17:33.171Z,2.70
2023-06-11T15:20:01.838Z,2.50
2023-06-11T15:22:30.121Z,2.70
2023-06-11T15:24:58.174Z,2.70
2023-06-11T15:27:26.036Z,3.10
2023-06-11T15:29:54.702Z,2.80
2023-06-11T15:32:22.850Z,3.20
2023-06-11T15:34:51.180Z,2.80
2023-06-11T15:37:19.153Z,2.60
2023-06-11T15:39:51.372Z,3.00
2023-06-11T15:42:20.057Z,3.00
2023-06-11T15:44:49.828Z,2.80
2023-06-11T15:47:18.470Z,2.60
2023-06-11T15:49:46.635Z,2.70
2023-06-11T15:52:14.691Z,2.90
2023-06-11T15:54:42.605Z,2.70
2023-06-11T15:57:11.090Z,2.70
2023-06-11T15:59:41.704Z,2.90
2023-06-11T16:02:09.830Z,2.80
2023-06-11T16:04:37.813Z,2.90
2023-06-11T16:07:08.474Z,3.70
2023-06-11T16:09:36.546Z,3.40
2023-06-11T16:12:05.045Z,3.60
2023-06-11T16:14:32.865Z,4.20
2023-06-11T16:17:01.872Z,4.50
2023-06-11T16:19:29.814Z,4.70
2023-06-11T16:21:57.679Z,5.10
2023-06-11T16:24:25.654Z,5.60
2023-06-11T16:26:53.503Z,4.30
2023-06-11T16:29:21.293Z,4.00
2023-06-11T16:31:49.369Z,4.00
2023-06-11T16:34:17.328Z,4.10
2023-06-11T16:36:45.122Z,3.70
2023-06-11T16:39:26.543Z,4.50
2023-06-11T16:41:56.386Z,3.60
2023-06-11T16:44:24.398Z,3.40
2023-06-11T16:46:52.519Z,4.60
2023-06-11T16:49:21.090Z,5.00
2023-06-11T16:51:49.008Z,5.80
2023-06-11T16:54:18.724Z,6.10
2023-06-11T16:56:47.309Z,6.50
2023-06-11T16:59:15.261Z,7.30
2023-06-11T17:01:43.396Z,7.80
2023-06-11T17:04:11.541Z,8.50
2023-06-11T17:06:39.689Z,9.20
2023-06-11T17:09:07.670Z,10.30
2023-06-11T17:11:35.751Z,10.80
2023-06-11T17:14:03.768Z,10.90
2023-06-11T17:16:32.031Z,9.30
2023-06-11T17:19:00.088Z,7.20
2023-06-11T17:21:28.176Z,6.00
2023-06-11T17:23:58.382Z,5.00
2023-06-11T17:26:28.409Z,4.80
2023-06-11T17:28:56.558Z,4.00
2023-06-11T17:31:24.796Z,3.70
2023-06-11T17:33:52.860Z,3.70
2023-06-11T17:36:20.788Z,3.50
2023-06-11T17:38:48.723Z,3.30
2023-06-11T17:41:17.098Z,3.30
2023-06-11T17:43:45.112Z,3.30
2023-06-11T17:46:13.793Z,3.00
2023-06-11T17:48:41.805Z,3.40
2023-06-11T17:51:09.849Z,2.90
2023-06-11T17:53:37.880Z,3.20
2023-06-11T17:56:06.125Z,3.00
2023-06-11T17:58:34.394Z,3.00
2023-06-11T18:01:02.258Z,2.70
2023-06-11T18:03:30.474Z,2.70
2023-06-11T18:05:58.649Z,2.70
2023-06-11T18:08:27.063Z,2.80
2023-06-11T18:10:54.961Z,3.20
2023-06-11T18:13:24.096Z,2.60
2023-06-11T18:15:52.116Z,2.70
2023-06-11T18:18:20.997Z,2.50
2023-06-11T18:20:50.987Z,3.10
2023-06-11T18:23:19.963Z,2.70
2023-06-11T18:25:49.041Z,2.60
2023-06-11T18:28:16.951Z,2.90
2023-06-11T18:30:44.994Z,2.50
2023-06-11T18:33:13.277Z,2.60
2023-06-11T18:35:41.737Z,2.70
2023-06-11T18:38:10.379Z,2.40
2023-06-11T18:40:39.150Z,2.30
2023-06-11T18:43:07.281Z,2.60
2023-06-11T18:45:35.490Z,2.60
2023-06-11T18:48:03.908Z,2.40
2023-06-11T18:50:33.363Z,2.40
2023-06-11T18:53:01.446Z,2.50
2023-06-11T18:55:30.957Z,2.10
2023-06-11T18:57:59.063Z,2.20
2023-06-11T19:00:26.892Z,2.00
2023-06-11T19:02:55.167Z,2.40
2023-06-11T19:05:24.075Z,2.40
2023-06-11T19:07:55.749Z,2.30
2023-06-11T19:10:23.992Z,2.50
2023-06-11T19:12:54.756Z,2.60
2023-06-11T19:15:23.859Z,2.60
2023-06-11T19:17:52.005Z,2.40
2023-06-11T19:20:20.016Z,2.30
2023-06-11T19:22:48.174Z,2.70
2023-06-11T19:25:16.207Z,2.50
2023-06-11T19:27:45.260Z,2.50
2023-06-11T19:30:15.560Z,2.40
2023-06-11T19:32:43.922Z,2.40
2023-06-11T19:35:12.091Z,2.90
2023-06-11T19:37:40.372Z,2.60
2023-06-11T19:40:09.746Z,2.40
2023-06-11T19:42:38.337Z,2.50
2023-06-11T19:45:08.330Z,2.40
2023-06-11T19:47:38.811Z,2.30
2023-06-11T19:50:11.504Z,2.30
2023-06-11T19:52:39.975Z,2.40
2023-06-11T19:55:08.683Z,2.50
2023-06-11T19:57:37.777Z,2.40
2023-06-11T20:00:06.745Z,2.70
2023-06-11T20:02:40.561Z,2.70
2023-06-11T20:05:09.303Z,2.90
2023-06-11T20:07:37.230Z,2.50
2023-06-11T20:10:06.297Z,2.80
2023-06-11T20:12:34.903Z,2.60
2023-06-11T20:15:02.837Z,2.80
2023-06-11T20:17:30.901Z,2.50
2023-06-11T20:19:59.621Z,2.70
2023-06-11T20:22:27.464Z,2.30
2023-06-11T20:24:56.036Z,2.80
2023-06-11T20:27:24.963Z,2.50
2023-06-11T20:29:52.903Z,2.40
2023-06-11T20:32:21.836Z,2.30
2023-06-11T20:34:49.856Z,2.90
2023-06-11T20:37:18.493Z,2.60
2023-06-11T20:39:46.436Z,2.60
2023-06-11T20:42:15.202Z,2.70
2023-06-11T20:44:43.188Z,2.80
2023-06-11T20:47:11.592Z,2.60
2023-06-11T20:49:41.482Z,2.40
2023-06-11T20:52:09.394Z,2.40
2023-06-11T20:54:37.437Z,2.90
2023-06-11T20:57:06.913Z,2.50
2023-06-11T20:59:34.788Z,2.50
2023-06-11T21:02:02.674Z,2.40
2023-06-11T21:04:30.652Z,2.60
2023-06-11T21:06:58.803Z,2.70
2023-06-11T21:09:26.619Z,2.30
2023-06-11T21:11:57.427Z,2.60
2023-06-11T21:14:27.482Z,2.40
2023-06-11T21:16:55.597Z,2.40
2023-06-11T21:19:23.529Z,2.90
2023-06-11T21:21:51.441Z,2.70
2023-06-11T21:24:19.309Z,3.00
2023-06-11T21:26:47.155Z,2.50
2023-06-11T21:29:15.146Z,2.60
2023-06-11T21:31:44.021Z,2.70
2023-06-11T21:34:11.893Z,2.70
2023-06-11T21:36:39.768Z,2.70
2023-06-11T21:39:07.664Z,2.70
2023-06-11T21:41:35.540Z,2.30
2023-06-11T21:44:03.439Z,2.60
2023-06-11T21:46:31.793Z,2.90
2023-06-11T21:48:59.872Z,2.50
2023-06-11T21:51:28.520Z,2.30
2023-06-11T21:53:56.390Z,2.90
2023-06-11T21:56:24.163Z,4.60
2023-06-11T21:58:52.030Z,2.50
2023-06-11T22:01:19.976Z,2.40
2023-06-11T22:03:47.863Z,3.60
2023-06-11T22:06:15.808Z,2.70
2023-06-11T22:08:45.446Z,5.40
2023-06-11T22:11:13.349Z,2.80
2023-06-11T22:13:41.198Z,3.20
2023-06-11T22:16:09.053Z,2.90
2023-06-11T22:18:37.993Z,3.60
2023-06-11T22:21:06.101Z,2.70
2023-06-11T22:23:49.521Z,2.30
2023-06-11T22:26:19.553Z,2.50
2023-06-11T22:28:47.597Z,2.70
2023-06-11T22:31:15.427Z,2.50
2023-06-11T22:33:45.053Z,2.60
2023-06-11T22:36:12.878Z,3.00
2023-06-11T22:38:41.257Z,2.70
2023-06-11T22:41:10.397Z,2.60
2023-06-11T22:43:38.155Z,3.10
2023-06-11T22:46:06.023Z,2.10
2023-06-11T22:48:33.874Z,2.50
2023-06-11T22:51:01.675Z,2.30
2023-06-11T22:53:29.553Z,2.60
2023-06-11T22:55:57.435Z,2.70
2023-06-11T22:58:25.288Z,2.40
2023-06-11T23:00:53.246Z,3.00
2023-06-11T23:03:21.179Z,2.80
2023-06-11T23:05:49.270Z,2.50
2023-06-11T23:08:17.121Z,2.80
2023-06-11T23:10:45.879Z,3.00
2023-06-11T23:13:13.795Z,2.90
2023-06-11T23:15:41.697Z,2.70
2023-06-11T23:18:12.949Z,3.10
2023-06-11T23:20:41.668Z,2.60
2023-06-11T23:23:10.255Z,3.10
2023-06-11T23:25:38.360Z,3.20
2023-06-11T23:28:13.478Z,3.50
2023-06-11T23:30:42.066Z,3.50
2023-06-11T23:33:13.995Z,3.10
2023-06-11T23:35:42.081Z,3.30
2023-06-11T23:38:11.117Z,2.70
2023-06-11T23:40:39.008Z,3.30
2023-06-11T23:43:06.906Z,3.90
2023-06-11T23:45:34.774Z,4.20
2023-06-11T23:48:02.641Z,4.50
2023-06-11T23:50:30.550Z,3.00
2023-06-11T23:52:58.466Z,3.50
2023-06-11T23:55:26.316Z,3.20
2023-06-11T23:58:19.235Z,3.90
